Nearby METAR Reports

 

KDWH - Houston/Dw Hooks, Texas, USA
Distance from station: WNW 3mi, 6km
Updated: 01/18/2020 10:53am
Overcast
Overcast
 Wind from WSW
Wind: WSW 5 mph , 7 km/h
Temperature: 72°F , 22°C
Dew Point: 66°F , 19°C
Humidity: 83%
Barometer: 30.18 inHg , 1022 hPa
Clouds: Overcast
Visibility: 10 miles , 16 km
Cloud details: Mostly cloudy 1100 ft
Overcast 6500 ft
2020/01/18 16:53 KDWH 181653Z 25004KT 10SM BKN011 OVC065 22/19 A3018 RMK AO2 SLP218 T02220189
KIAH - Houston/Intnl, Texas, USA
Distance from station: ESE 9mi, 14km
Updated: 01/18/2020 11:06am
Mostly cloudy
Mostly cloudy
 Wind from W
Wind: W 5 mph , 7 km/h
Temperature: 73°F , 23°C
Dew Point: 66°F , 19°C
Humidity: 78%
Barometer: 30.17 inHg , 1021.7 hPa
Clouds: Mostly cloudy
Visibility: 10 miles , 16 km
Cloud details: Partly cloudy 1200 ft
Mostly cloudy 7000 ft
Mostly cloudy 25000 ft
2020/01/18 17:06 KIAH 181706Z 26004KT 10SM SCT012 BKN070 BKN250 23/19 A3017 RMK AO2 T02280189
 
KCXO - Conroe, Texas, USA
Distance from station: NNE 21mi, 34km
Updated: 01/18/2020 10:53am
Overcast
Overcast
 Wind from W
Wind: W 3 mph , 6 km/h
Temperature: 72°F , 22°C
Dew Point: 68°F , 20°C
Humidity: 88%
Barometer: 30.20 inHg , 1022.7 hPa
Clouds: Overcast
Visibility: 10 miles , 16 km
Cloud details: Few Clouds 900 ft
Overcast 6500 ft
2020/01/18 16:53 KCXO 181653Z 28003KT 10SM FEW009 OVC065 22/20 A3020 RMK AO2 SLP222 T02170200
KMCJ - Houston/Univ, Texas, USA
Distance from station: SSE 24mi, 39km
Updated: 01/18/2020 11:15am
Mostly cloudy
Mostly cloudy
 Wind from varies
Wind: varies 5 mph , 7 km/h
Temperature: 72°F , 22°C
Dew Point: 70°F , 21°C
Humidity: 94%
Barometer: 30.17 inHg , 1021.7 hPa
Clouds: Mostly cloudy
Visibility: 8 miles , 13 km
Cloud details: Partly cloudy 600 ft
Mostly cloudy 900 ft
2020/01/18 17:15 KMCJ 181715Z AUTO VRB04KT 8SM SCT006 BKN009 22/21 A3017 RMK A01
 
KTME - Houston Exec, Texas, USA
Distance from station: SW 30mi, 48km
Updated: 01/18/2020 11:15am
Overcast
Overcast
 Wind from NW
Wind: NW 5 mph , 7 km/h
Temperature: 73°F , 23°C
Dew Point: 70°F , 21°C
Humidity: 89%
Barometer: 30.19 inHg , 1022.4 hPa
Clouds: Overcast
Visibility: 9 miles , 14 km
Cloud details: Partly cloudy 1400 ft
Partly cloudy 2300 ft
Overcast 6000 ft
2020/01/18 17:15 KTME 181715Z AUTO 31004KT 9SM SCT014 SCT023 OVC060 23/21 A3019 RMK AO2
KHOU - Houston/Hobby, Texas, USA
Distance from station: SSE 32mi, 51km
Updated: 01/18/2020 10:56am
Overcast
Overcast
 Wind from WSW
Wind: WSW 5 mph , 7 km/h
Temperature: 72°F , 22°C
Dew Point: 70°F , 21°C
Humidity: 94%
Barometer: 30.18 inHg , 1022 hPa
Clouds: Overcast
Visibility: 10 miles , 16 km
Cloud details: Mostly cloudy 500 ft
Overcast 5500 ft
2020/01/18 16:56 KHOU 181656Z 24004KT 10SM BKN005 OVC055 22/21 A3018 RMK AO2 T02220206
 
KSGR - Houston/Sugar La, Texas, USA
Distance from station: SSW 32mi, 51km
Updated: 01/18/2020 10:53am
Overcast
Overcast
 Wind from SSW
Wind: SSW 6 mph , 9 km/h
Temperature: 73°F , 23°C
Dew Point: 70°F , 21°C
Humidity: 89%
Barometer: 30.17 inHg , 1021.7 hPa
Clouds: Overcast
Visibility: 10 miles , 16 km
Cloud details: Few Clouds 3300 ft
Overcast 9500 ft
2020/01/18 16:53 KSGR 181653Z 20005KT 10SM FEW033 OVC095 23/21 A3017 RMK AO2 RAB01E11 SLP218 P0000 T02280206
K6R3 - Cleveland Muni, Texas, USA
Distance from station: NE 36mi, 58km
Updated: 01/18/2020 11:15am
Overcast
Overcast
 Wind from calm
Wind: Calm
Temperature: 72°F , 22°C
Dew Point: 68°F , 20°C
Humidity: 88%
Barometer: 30.20 inHg , 1022.7 hPa
Clouds: Overcast
Visibility: 7 miles , 11 km
Cloud details: Mostly cloudy 1000 ft
Overcast 1500 ft
2020/01/18 17:15 K6R3 181715Z AUTO 00000KT 7SM BKN010 OVC015 22/20 A3020 RMK AO2 T02150202
 
KAXH - Houston/Southwst, Texas, USA
Distance from station: S 37mi, 60km
Updated: 01/18/2020 11:15am
Overcast
Overcast
 Wind from calm
Wind: Calm
Temperature: 72°F , 22°C
Dew Point: 72°F , 22°C
Humidity: 100%
Barometer: 30.19 inHg , 1022.4 hPa
Clouds: Overcast
Visibility: 10 miles , 16 km
Cloud details: Overcast 800 ft
2020/01/18 17:15 KAXH 181715Z AUTO 00000KT 10SM OVC008 22/22 A3019 RMK AO2 T02190216
KEFD - Houston/Ellingto, Texas, USA
Distance from station: SSE 37mi, 60km
Updated: 01/18/2020 10:50am
Overcast
Overcast
 Wind from S
Wind: S 3 mph , 6 km/h
Temperature: 70°F , 21°C
Dew Point: 68°F , 20°C
Humidity: 94%
Barometer: 30.18 inHg , 1022 hPa
Clouds: Overcast
Visibility: 7 miles , 11 km
Cloud details: Mostly cloudy 600 ft
Overcast 6000 ft
2020/01/18 16:50 KEFD 181650Z 19003KT 7SM BKN006 OVC060 21/20 A3018
 
KLVJ - Houston, Texas, USA
Distance from station: SSE 40mi, 64km
Updated: 01/18/2020 10:53am
Overcast
Overcast
 Wind from SW
Wind: SW 5 mph , 7 km/h
Temperature: 72°F , 22°C
Dew Point: 70°F , 21°C
Humidity: 94%
Barometer: 30.19 inHg , 1022.4 hPa
Clouds: Overcast
Visibility: 8 miles , 13 km
Cloud details: Mostly cloudy 700 ft
Overcast 1100 ft
2020/01/18 16:53 KLVJ 181653Z AUTO 22004KT 8SM BKN007 OVC011 22/21 A3019 RMK AO2 RAB1555E32 SLP223 P0000 T02220206
KUTS - Huntsville, Texas, USA
Distance from station: N 48mi, 78km
Updated: 01/18/2020 11:13am
Overcast
Overcast
 Wind from SW
Wind: SW 7 mph , 11 km/h
Temperature: 72°F , 22°C
Dew Point: 66°F , 19°C
Humidity: 83%
Barometer: 30.19 inHg , 1022.4 hPa
Clouds: Overcast
Visibility: 9 miles , 14 km
Cloud details: Mostly cloudy 900 ft
Mostly cloudy 1300 ft
Overcast 6000 ft
2020/01/18 17:13 KUTS 181713Z AUTO 23006KT 9SM BKN009 BKN013 OVC060 22/19 A3019 RMK AO2 T02170194